createdAt,value
2022-11-03T17:38:19.105Z,22.30
2022-11-03T17:40:47.888Z,22.40
2022-11-03T17:43:30.161Z,22.40
2022-11-03T17:45:57.209Z,22.40
2022-11-03T17:48:24.380Z,22.40
2022-11-03T17:50:54.581Z,22.40
2022-11-03T17:53:31.309Z,22.40
2022-11-03T17:58:47.463Z,22.40
2022-11-03T18:01:23.029Z,22.40
2022-11-03T18:03:49.997Z,22.40
2022-11-03T18:06:19.544Z,22.30
2022-11-03T18:08:50.382Z,22.30
2022-11-03T18:11:48.691Z,22.40
2022-11-03T18:14:16.535Z,22.30
2022-11-03T18:16:43.462Z,22.30
2022-11-03T18:19:14.788Z,22.30
2022-11-03T18:21:41.711Z,22.30
2022-11-03T18:24:17.411Z,22.30
2022-11-03T18:26:44.395Z,22.30
2022-11-03T18:29:11.650Z,22.30
2022-11-03T18:31:46.836Z,22.30
2022-11-03T18:34:18.501Z,22.30
2022-11-03T18:36:46.616Z,22.30
2022-11-03T18:39:25.583Z,22.30
2022-11-03T18:41:53.136Z,22.30
2022-11-03T18:44:28.414Z,22.20
2022-11-03T18:46:56.090Z,22.20
2022-11-03T18:49:25.050Z,22.20
2022-11-03T18:52:01.019Z,22.20
2022-11-03T18:54:30.810Z,22.20
2022-11-03T18:56:58.106Z,22.20
2022-11-03T18:59:32.016Z,22.20
2022-11-03T19:01:59.450Z,22.20
2022-11-03T19:04:26.522Z,22.20
2022-11-03T19:06:53.558Z,22.20
2022-11-03T19:09:24.570Z,22.20
2022-11-03T19:11:54.497Z,22.30
2022-11-03T19:14:31.967Z,22.30
2022-11-03T19:17:22.259Z,22.30
2022-11-03T19:19:50.219Z,22.30
2022-11-03T19:22:19.511Z,22.30
2022-11-03T19:24:47.007Z,22.30
2022-11-03T19:27:30.083Z,22.30
2022-11-03T19:29:59.682Z,22.30
2022-11-03T19:32:30.602Z,22.30
2022-11-03T19:35:01.884Z,22.30
2022-11-03T19:37:35.537Z,22.30
2022-11-03T19:40:08.899Z,22.30
2022-11-03T19:42:38.834Z,22.30
2022-11-03T19:45:10.756Z,22.30
2022-11-03T19:47:48.006Z,22.30
2022-11-03T19:50:25.062Z,22.30
2022-11-03T19:53:02.628Z,22.30
2022-11-03T19:55:36.435Z,22.30
2022-11-03T19:58:20.635Z,22.30
2022-11-03T20:00:49.339Z,22.30
2022-11-03T20:03:16.957Z,22.30
2022-11-03T20:05:49.284Z,22.30
2022-11-03T20:08:20.690Z,22.30
2022-11-03T20:10:48.367Z,22.30
2022-11-03T20:13:17.190Z,22.30
2022-11-03T20:15:44.133Z,22.30
2022-11-03T20:18:12.701Z,22.30
2022-11-03T20:20:41.482Z,22.30
2022-11-03T20:23:18.415Z,22.30
2022-11-03T20:25:45.736Z,22.30
2022-11-03T20:28:21.506Z,22.30
2022-11-03T20:30:49.025Z,22.30
2022-11-03T20:33:20.551Z,22.30
2022-11-03T20:35:48.442Z,22.30
2022-11-03T20:38:19.189Z,22.30
2022-11-03T20:40:46.625Z,22.30
2022-11-03T20:43:25.856Z,22.30
2022-11-03T20:45:54.101Z,22.30
2022-11-03T20:48:21.122Z,22.30
2022-11-03T20:50:48.261Z,22.30
2022-11-03T20:53:17.691Z,22.30
2022-11-03T20:55:44.888Z,22.30
2022-11-03T20:58:17.398Z,22.30
2022-11-03T21:00:46.031Z,22.30
2022-11-03T21:06:16.461Z,22.30
2022-11-03T21:08:45.141Z,22.30
2022-11-03T21:11:28.080Z,22.30
2022-11-03T21:14:04.686Z,22.30
2022-11-03T21:16:49.916Z,22.30
2022-11-03T21:19:41.921Z,22.30
2022-11-03T21:22:50.770Z,22.30
2022-11-03T21:25:16.225Z,22.30
2022-11-03T21:27:43.385Z,22.30
2022-11-03T21:30:15.069Z,22.30
2022-11-03T21:32:41.981Z,22.30
2022-11-03T21:35:20.267Z,22.30
2022-11-03T21:37:47.367Z,22.30
2022-11-03T21:40:14.649Z,22.30
2022-11-03T21:43:00.281Z,22.30
2022-11-03T21:45:27.586Z,22.30
2022-11-03T21:48:14.438Z,22.30
2022-11-03T21:50:42.630Z,22.30
2022-11-03T21:53:10.196Z,22.30
2022-11-03T21:55:37.422Z,22.30
2022-11-03T21:58:04.487Z,22.30
2022-11-03T22:00:32.073Z,22.30
2022-11-03T22:02:59.712Z,22.30
2022-11-03T22:05:27.088Z,22.30
2022-11-03T22:07:53.958Z,22.30
2022-11-03T22:10:20.851Z,22.40
2022-11-03T22:12:47.749Z,22.40
2022-11-03T22:15:33.202Z,22.40
2022-11-03T22:18:01.270Z,22.40
2022-11-03T22:20:46.762Z,22.40
2022-11-03T22:23:34.125Z,22.40
2022-11-03T22:26:20.118Z,22.40
2022-11-03T22:29:06.886Z,22.40
2022-11-03T22:31:43.156Z,22.40
2022-11-03T22:34:28.805Z,22.30
2022-11-03T22:36:55.682Z,22.50
2022-11-03T22:42:30.177Z,22.50
2022-11-03T22:45:23.371Z,22.50
2022-11-03T22:47:57.278Z,22.60
2022-11-03T22:50:24.225Z,22.60
2022-11-03T22:52:51.050Z,22.50
2022-11-03T22:55:17.991Z,22.60
2022-11-03T22:57:44.823Z,22.50
2022-11-03T23:00:13.510Z,22.50
2022-11-03T23:05:08.284Z,22.60
2022-11-03T23:07:40.831Z,22.70
2022-11-03T23:10:08.682Z,22.70
2022-11-03T23:15:21.220Z,22.70
2022-11-03T23:18:08.065Z,22.80
2022-11-03T23:20:56.483Z,22.80
2022-11-03T23:23:43.559Z,22.70
2022-11-03T23:26:10.650Z,22.60
2022-11-03T23:28:37.504Z,22.60
2022-11-03T23:31:04.421Z,22.70
2022-11-03T23:38:33.190Z,22.90
2022-11-03T23:41:04.919Z,22.80
2022-11-03T23:43:32.108Z,22.70
2022-11-03T23:46:17.500Z,22.70
2022-11-03T23:48:47.209Z,22.70
2022-11-03T23:51:23.140Z,22.70
2022-11-03T23:53:50.743Z,22.70
2022-11-03T23:56:39.803Z,22.70
2022-11-03T23:59:07.757Z,22.70
